createdAt,value
2022-08-16T00:02:24.651Z,92926.94
2022-08-16T00:04:51.680Z,92946.75
2022-08-16T00:07:19.493Z,92934.59
2022-08-16T00:09:47.595Z,92948.00
2022-08-16T00:12:17.935Z,92949.72
2022-08-16T00:14:45.360Z,92936.38
2022-08-16T00:17:18.365Z,92939.34
2022-08-16T00:19:47.192Z,92942.53
2022-08-16T00:22:15.953Z,92934.31
2022-08-16T00:24:44.902Z,92937.78
2022-08-16T00:27:14.028Z,92939.94
2022-08-16T00:29:40.956Z,92934.09
2022-08-16T00:32:09.050Z,92936.75
2022-08-16T00:34:44.374Z,92932.94
2022-08-16T00:37:24.561Z,92936.34
2022-08-16T00:39:58.087Z,92921.06
2022-08-16T00:42:31.839Z,92928.00
2022-08-16T00:45:08.642Z,92927.19
2022-08-16T00:47:49.396Z,92922.97
2022-08-16T00:50:20.508Z,92930.75
2022-08-16T00:52:51.091Z,92927.19
2022-08-16T00:55:20.663Z,92929.78
2022-08-16T00:57:58.761Z,92933.84
2022-08-16T01:00:30.319Z,92938.00
2022-08-16T01:02:59.589Z,92924.31
2022-08-16T01:05:26.675Z,92920.59
2022-08-16T01:07:54.258Z,92919.44
2022-08-16T01:10:31.172Z,92928.63
2022-08-16T01:13:04.571Z,92940.31
2022-08-16T01:15:33.895Z,92933.66
2022-08-16T01:18:02.185Z,92933.06
2022-08-16T01:20:33.891Z,92924.59
2022-08-16T01:23:12.955Z,92932.53
2022-08-16T01:26:00.270Z,92932.19
2022-08-16T01:28:38.785Z,92930.78
2022-08-16T01:31:14.926Z,92935.06
2022-08-16T01:33:44.621Z,92891.59
2022-08-16T01:36:13.115Z,92938.72
2022-08-16T01:38:49.075Z,92942.84
2022-08-16T01:41:30.769Z,92940.31
2022-08-16T01:44:00.951Z,92939.78
2022-08-16T01:46:39.286Z,92936.56
2022-08-16T01:49:20.210Z,92934.75
2022-08-16T01:51:51.685Z,92935.09
2022-08-16T01:54:31.024Z,92933.00
2022-08-16T01:56:58.971Z,92926.66
2022-08-16T01:59:27.917Z,92943.22
2022-08-16T02:01:59.966Z,92941.06
2022-08-16T02:04:48.388Z,92942.31
2022-08-16T02:07:18.248Z,92938.91
2022-08-16T02:09:57.365Z,92930.56
2022-08-16T02:12:50.570Z,92926.78
2022-08-16T02:15:16.894Z,92927.25
2022-08-16T02:17:43.739Z,92921.19
2022-08-16T02:20:12.353Z,92937.44
2022-08-16T02:22:39.649Z,92927.94
2022-08-16T02:25:14.660Z,92927.72
2022-08-16T02:27:43.890Z,92920.91
2022-08-16T02:30:35.999Z,92916.41
2022-08-16T02:33:04.567Z,92918.09
2022-08-16T02:35:33.281Z,92920.31
2022-08-16T02:38:01.763Z,92920.75
2022-08-16T02:40:35.452Z,92915.72
2022-08-16T02:43:02.752Z,92910.44
2022-08-16T02:45:29.580Z,92920.47
2022-08-16T02:48:01.618Z,92909.97
2022-08-16T02:50:53.944Z,92911.84
2022-08-16T02:53:29.189Z,92910.13
2022-08-16T02:55:56.768Z,92905.47
2022-08-16T02:58:25.208Z,92909.09
2022-08-16T03:00:55.988Z,92900.16
2022-08-16T03:03:25.180Z,92904.91
2022-08-16T03:05:53.310Z,92893.91
2022-08-16T03:08:31.000Z,92900.47
2022-08-16T03:11:16.561Z,92902.59
2022-08-16T03:13:56.663Z,92890.19
2022-08-16T03:16:38.788Z,92894.31
2022-08-16T03:19:09.472Z,92884.44
2022-08-16T03:21:38.485Z,92891.34
2022-08-16T03:24:28.810Z,92890.84
2022-08-16T03:26:59.011Z,92884.69
2022-08-16T03:29:31.934Z,92876.47
2022-08-16T03:32:01.515Z,92881.78
2022-08-16T03:34:30.435Z,92885.56
2022-08-16T03:36:57.875Z,92879.28
2022-08-16T03:39:25.453Z,92879.16
2022-08-16T03:41:59.580Z,92872.44
2022-08-16T03:44:43.502Z,92881.94
2022-08-16T03:47:19.255Z,92876.28
2022-08-16T03:49:51.560Z,92881.94
2022-08-16T03:52:23.504Z,92879.28
2022-08-16T03:54:57.452Z,92880.09
2022-08-16T03:57:31.973Z,92881.47
2022-08-16T04:00:20.663Z,92875.91
2022-08-16T04:03:07.094Z,92871.28
2022-08-16T04:05:40.988Z,92884.66
2022-08-16T04:08:23.148Z,92871.59
2022-08-16T04:10:55.672Z,92854.25
2022-08-16T04:14:00.031Z,92853.22
2022-08-16T04:16:27.152Z,92876.06
2022-08-16T04:19:02.794Z,92872.44
2022-08-16T04:21:36.035Z,92882.44
2022-08-16T04:24:12.855Z,92891.22
2022-08-16T04:26:45.861Z,92885.25
2022-08-16T04:29:23.828Z,92881.63
2022-08-16T04:31:55.550Z,92889.63
2022-08-16T04:34:22.474Z,92882.69
2022-08-16T04:36:52.079Z,92880.53
2022-08-16T04:39:20.204Z,92879.94
2022-08-16T04:41:57.015Z,92880.84
2022-08-16T04:44:52.895Z,92883.13
2022-08-16T04:47:21.785Z,92882.22
2022-08-16T04:49:52.271Z,92877.38
2022-08-16T04:52:32.894Z,92879.16
2022-08-16T04:55:06.072Z,92881.94
2022-08-16T04:57:32.872Z,92875.22
2022-08-16T04:59:59.716Z,92878.25
2022-08-16T05:02:54.977Z,92872.19
2022-08-16T05:05:23.239Z,92866.75
2022-08-16T05:07:58.681Z,92880.63
2022-08-16T05:10:30.772Z,92872.50
2022-08-16T05:13:02.149Z,92877.97
2022-08-16T05:15:29.935Z,92879.72
2022-08-16T05:17:59.841Z,92868.66
2022-08-16T05:20:39.349Z,92866.16
2022-08-16T05:23:13.735Z,92870.88
2022-08-16T05:25:48.296Z,92870.09
2022-08-16T05:28:17.476Z,92875.00
2022-08-16T05:30:45.096Z,92863.00
2022-08-16T05:33:18.066Z,92869.47
2022-08-16T05:35:55.147Z,92865.94
2022-08-16T05:38:32.464Z,92860.59
2022-08-16T05:41:04.104Z,92855.25
2022-08-16T05:43:32.074Z,92857.84
2022-08-16T05:46:28.654Z,92845.56
2022-08-16T05:49:08.659Z,92862.38
2022-08-16T05:51:38.460Z,92864.25
2022-08-16T05:54:06.522Z,92861.03
2022-08-16T05:56:34.272Z,92856.41
2022-08-16T05:59:06.292Z,92841.69
2022-08-16T06:01:38.321Z,92860.00
2022-08-16T06:04:13.146Z,92850.34
2022-08-16T06:06:43.399Z,92862.75
2022-08-16T06:09:25.843Z,92858.75
2022-08-16T06:12:27.517Z,92861.38
2022-08-16T06:15:01.819Z,92859.25
2022-08-16T06:17:42.329Z,92854.22
2022-08-16T06:20:24.179Z,92853.66
2022-08-16T06:23:02.797Z,92853.69
2022-08-16T06:25:36.489Z,92846.94
2022-08-16T06:28:08.934Z,92845.00
2022-08-16T06:30:44.169Z,92848.00
2022-08-16T06:33:22.280Z,92848.00
2022-08-16T06:35:55.145Z,92847.06
2022-08-16T06:38:32.701Z,92845.03
2022-08-16T06:41:03.810Z,92841.25
2022-08-16T06:43:32.111Z,92827.84
2022-08-16T06:45:59.392Z,92822.66
2022-08-16T06:48:33.160Z,92834.94
2022-08-16T06:51:05.616Z,92831.13
2022-08-16T06:53:35.710Z,92831.75
2022-08-16T06:56:13.841Z,92835.00
2022-08-16T06:58:45.253Z,92831.56
2022-08-16T07:01:15.633Z,92820.34
2022-08-16T07:03:54.534Z,92816.56
2022-08-16T07:06:26.518Z,92831.50
2022-08-16T07:08:53.992Z,92828.63
2022-08-16T07:11:21.024Z,92814.78
2022-08-16T07:14:25.193Z,92803.56
2022-08-16T07:16:58.393Z,92821.13
2022-08-16T07:20:02.050Z,92825.88
2022-08-16T07:22:37.568Z,92831.16
2022-08-16T07:25:04.923Z,92815.41
2022-08-16T07:27:32.089Z,92830.78
2022-08-16T07:30:00.972Z,92827.38
2022-08-16T07:32:29.586Z,92821.50
2022-08-16T07:34:56.533Z,92831.34
2022-08-16T07:37:23.739Z,92816.88
2022-08-16T07:39:51.956Z,92827.47
2022-08-16T07:42:28.175Z,92828.00
2022-08-16T07:45:02.652Z,92832.91
2022-08-16T07:47:31.311Z,92826.47
2022-08-16T07:49:59.943Z,92812.59
2022-08-16T07:52:32.773Z,92809.91
2022-08-16T07:55:00.063Z,92828.31
2022-08-16T07:57:26.932Z,92837.75
2022-08-16T07:59:53.713Z,92832.34
2022-08-16T08:02:27.364Z,92831.56
2022-08-16T08:04:55.547Z,92829.44
2022-08-16T08:07:28.147Z,92833.19
2022-08-16T08:09:55.980Z,92829.69
2022-08-16T08:12:32.126Z,92815.78
2022-08-16T08:15:05.436Z,92823.56
2022-08-16T08:17:42.758Z,92827.84
2022-08-16T08:20:20.081Z,92819.47
2022-08-16T08:23:01.139Z,92819.13
2022-08-16T08:25:54.450Z,92814.28
2022-08-16T08:28:18.536Z,92815.34
2022-08-16T08:30:51.319Z,92815.19
2022-08-16T08:33:24.136Z,92813.88
2022-08-16T08:35:50.850Z,92813.31
2022-08-16T08:38:45.136Z,92819.94
2022-08-16T08:41:08.065Z,92810.72
2022-08-16T08:43:36.366Z,92813.94
2022-08-16T08:46:12.426Z,92809.06
2022-08-16T08:48:59.454Z,92813.34
2022-08-16T08:51:35.801Z,92810.13
2022-08-16T08:54:09.352Z,92809.91
2022-08-16T08:56:45.189Z,92803.34
2022-08-16T08:59:19.869Z,92805.06
2022-08-16T09:01:57.334Z,92816.72
2022-08-16T09:04:26.822Z,92815.53
2022-08-16T09:06:55.386Z,92805.50
2022-08-16T09:09:23.010Z,92813.34
2022-08-16T09:11:53.787Z,92814.78
2022-08-16T09:14:32.163Z,92813.50
2022-08-16T09:17:03.287Z,92815.13
2022-08-16T09:19:40.641Z,92816.19
2022-08-16T09:22:19.804Z,92820.31
2022-08-16T09:24:52.859Z,92818.69
2022-08-16T09:27:25.245Z,92824.69
2022-08-16T09:30:00.295Z,92816.53
2022-08-16T09:32:31.180Z,92822.09
2022-08-16T09:34:59.836Z,92812.19
2022-08-16T09:37:36.915Z,92813.31
2022-08-16T09:40:31.593Z,92816.75
2022-08-16T09:42:59.219Z,92821.72
2022-08-16T09:45:28.881Z,92811.88
2022-08-16T09:47:58.171Z,92816.28
2022-08-16T09:50:36.990Z,92819.69
2022-08-16T09:53:15.481Z,92808.53
2022-08-16T09:55:49.163Z,92815.72
2022-08-16T09:58:37.904Z,92827.34
2022-08-16T10:01:08.631Z,92821.38
2022-08-16T10:03:38.640Z,92809.41
2022-08-16T10:06:33.082Z,92817.84
2022-08-16T10:09:05.781Z,92805.78
2022-08-16T10:11:53.280Z,92817.03
2022-08-16T10:14:24.718Z,92821.94
2022-08-16T10:17:02.432Z,92790.03
2022-08-16T10:19:31.799Z,92819.78
2022-08-16T10:21:59.458Z,92826.53
2022-08-16T10:24:33.418Z,92806.59
2022-08-16T10:27:26.152Z,92819.13
2022-08-16T10:30:01.084Z,92815.78
2022-08-16T10:32:34.257Z,92825.56
2022-08-16T10:35:03.629Z,92814.03
2022-08-16T10:37:32.308Z,92799.94
2022-08-16T10:40:28.375Z,92813.72
2022-08-16T10:42:54.353Z,92810.22
2022-08-16T10:45:21.180Z,92805.47
2022-08-16T10:47:58.948Z,92801.13
2022-08-16T10:50:32.315Z,92807.97
2022-08-16T10:52:59.744Z,92795.84
2022-08-16T10:55:44.462Z,92805.66
2022-08-16T10:58:14.117Z,92807.06
2022-08-16T11:00:45.996Z,92798.03
2022-08-16T11:06:03.430Z,92800.38
2022-08-16T11:08:37.461Z,92797.44
2022-08-16T11:11:12.813Z,92796.94
2022-08-16T11:14:11.393Z,92793.59
2022-08-16T11:19:20.314Z,92800.56
2022-08-16T11:24:44.586Z,92804.97
2022-08-16T11:27:23.842Z,92807.44
2022-08-16T11:29:56.555Z,92796.63
2022-08-16T11:32:31.638Z,92798.50
2022-08-16T11:35:10.728Z,92799.28
2022-08-16T11:40:36.243Z,92793.56
2022-08-16T11:43:04.589Z,92795.53
2022-08-16T11:45:33.968Z,92791.19
2022-08-16T11:48:04.086Z,92793.00
2022-08-16T11:50:33.436Z,92800.59
2022-08-16T11:53:03.653Z,92802.31
2022-08-16T11:55:31.478Z,92801.91
2022-08-16T11:58:00.132Z,92797.97
2022-08-16T12:00:33.651Z,92797.63
2022-08-16T12:03:17.536Z,92788.97
2022-08-16T12:05:46.013Z,92795.06
2022-08-16T12:08:12.994Z,92789.56
2022-08-16T12:10:43.234Z,92779.28
2022-08-16T12:13:11.812Z,92781.16
2022-08-16T12:15:40.277Z,92778.03
2022-08-16T12:18:08.114Z,92783.81
2022-08-16T12:20:40.383Z,92770.31
2022-08-16T12:23:07.659Z,92786.50
2022-08-16T12:25:36.240Z,92774.91
2022-08-16T12:28:06.485Z,92786.63
2022-08-16T12:30:39.149Z,92787.91
2022-08-16T12:33:07.951Z,92785.56
2022-08-16T12:35:38.220Z,92787.66
2022-08-16T12:38:08.633Z,92782.63
2022-08-16T12:40:55.700Z,92799.09
2022-08-16T12:43:25.448Z,92790.28
2022-08-16T12:45:55.380Z,92779.81
2022-08-16T12:48:52.593Z,92782.47
2022-08-16T12:51:24.019Z,92782.63
2022-08-16T12:53:54.411Z,92800.94
2022-08-16T12:56:25.632Z,92792.91
2022-08-16T12:58:55.964Z,92779.78
2022-08-16T13:01:26.861Z,92777.31
2022-08-16T13:04:19.616Z,92775.91
2022-08-16T13:06:45.304Z,92740.56
2022-08-16T13:09:21.821Z,92767.16
2022-08-16T13:12:20.937Z,92767.09
2022-08-16T13:14:49.835Z,92765.72
2022-08-16T13:17:29.485Z,92763.03
2022-08-16T13:20:12.568Z,92758.91
2022-08-16T13:22:47.241Z,92754.56
2022-08-16T13:25:21.345Z,92753.97
2022-08-16T13:28:02.244Z,92746.69
2022-08-16T13:30:41.244Z,92757.09
2022-08-16T13:33:13.458Z,92769.47
2022-08-16T13:35:44.679Z,92773.34
2022-08-16T13:38:24.245Z,92770.38
2022-08-16T13:40:51.590Z,92751.25
2022-08-16T13:43:19.601Z,92753.38
2022-08-16T13:45:46.271Z,92755.19
2022-08-16T13:48:24.936Z,92755.72
2022-08-16T13:50:54.637Z,92748.66
2022-08-16T13:53:24.527Z,92764.38
2022-08-16T13:55:58.615Z,92758.22
2022-08-16T13:58:35.307Z,92750.72
2022-08-16T14:01:09.774Z,92745.47
2022-08-16T14:03:38.836Z,92750.75
2022-08-16T14:06:10.837Z,92750.44
2022-08-16T14:08:43.098Z,92754.09
2022-08-16T14:11:12.453Z,92762.34
2022-08-16T14:13:42.151Z,92751.72
2022-08-16T14:16:12.687Z,92753.81
2022-08-16T14:18:50.459Z,92744.03
2022-08-16T14:21:23.582Z,92737.56
2022-08-16T14:23:52.052Z,92724.53
2022-08-16T14:26:21.179Z,92750.91
2022-08-16T14:28:50.802Z,92726.66
2022-08-16T14:31:18.613Z,92745.19
2022-08-16T14:33:45.950Z,92738.13
2022-08-16T14:36:18.754Z,92719.31
2022-08-16T14:38:51.944Z,92714.88
2022-08-16T14:41:18.731Z,92723.47
2022-08-16T14:43:45.447Z,92718.41
2022-08-16T14:46:12.336Z,92726.13
2022-08-16T14:48:39.044Z,92724.72
2022-08-16T14:51:05.869Z,92748.56
2022-08-16T14:53:33.425Z,92736.41
2022-08-16T14:56:00.143Z,92726.13
2022-08-16T14:58:34.466Z,92714.13
2022-08-16T15:01:04.599Z,92714.84
2022-08-16T15:03:32.988Z,92720.34
2022-08-16T15:06:01.682Z,92723.03
2022-08-16T15:08:36.245Z,92726.31
2022-08-16T15:11:06.113Z,92714.41
2022-08-16T15:13:35.003Z,92724.34
2022-08-16T15:16:02.998Z,92715.69
2022-08-16T15:18:32.318Z,92717.88
2022-08-16T15:21:01.713Z,92712.38
2022-08-16T15:23:28.432Z,92716.41
2022-08-16T15:26:02.932Z,92706.19
2022-08-16T15:28:32.824Z,92729.91
2022-08-16T15:31:06.196Z,92722.28
2022-08-16T15:33:35.729Z,92716.41
2022-08-16T15:36:09.722Z,92721.81
2022-08-16T15:39:02.157Z,92720.97
2022-08-16T15:41:43.077Z,92715.75
2022-08-16T15:44:13.160Z,92726.47
2022-08-16T15:46:54.894Z,92719.09
2022-08-16T15:49:37.311Z,92713.66
2022-08-16T15:52:15.148Z,92709.53
2022-08-16T15:54:52.384Z,92713.56
2022-08-16T15:57:22.340Z,92701.75
2022-08-16T15:59:55.659Z,92715.06
2022-08-16T16:02:30.375Z,92701.59
2022-08-16T16:05:01.830Z,92719.38
2022-08-16T16:07:30.151Z,92717.13
2022-08-16T16:09:59.243Z,92705.00
2022-08-16T16:12:51.461Z,92707.00
2022-08-16T16:15:22.914Z,92710.25
2022-08-16T16:17:52.472Z,92699.00
2022-08-16T16:20:22.128Z,92700.25
2022-08-16T16:22:51.692Z,92701.09
2022-08-16T16:25:19.372Z,92702.72
2022-08-16T16:27:55.967Z,92701.09
2022-08-16T16:30:37.593Z,92705.41
2022-08-16T16:33:21.053Z,92704.19
2022-08-16T16:35:57.217Z,92705.66
2022-08-16T16:38:30.688Z,92714.91
2022-08-16T16:41:02.408Z,92709.25
2022-08-16T16:43:31.856Z,92699.94
2022-08-16T16:46:01.740Z,92685.88
2022-08-16T16:48:35.326Z,92698.25
2022-08-16T16:51:09.022Z,92684.53
2022-08-16T16:53:39.324Z,92691.56
2022-08-16T16:56:08.883Z,92688.81
2022-08-16T16:59:01.171Z,92692.38
2022-08-16T17:01:56.642Z,92692.63
2022-08-16T17:04:31.467Z,92685.38
2022-08-16T17:06:59.493Z,92689.50
2022-08-16T17:09:27.103Z,92695.97
2022-08-16T17:11:54.877Z,92687.31
2022-08-16T17:14:32.793Z,92686.31
2022-08-16T17:17:02.305Z,92683.28
2022-08-16T17:19:31.397Z,92683.44
2022-08-16T17:21:59.464Z,92686.81
2022-08-16T17:24:33.215Z,92686.78
2022-08-16T17:27:08.511Z,92674.22
2022-08-16T17:29:45.978Z,92684.38
2022-08-16T17:32:44.605Z,92676.91
2022-08-16T17:35:10.794Z,92692.63
2022-08-16T17:37:42.364Z,92683.25
2022-08-16T17:40:23.208Z,92689.59
2022-08-16T17:43:03.774Z,92691.66
2022-08-16T17:45:30.417Z,92694.97
2022-08-16T17:47:57.055Z,92701.94
2022-08-16T17:50:24.480Z,92696.28
2022-08-16T17:52:53.856Z,92694.88
2022-08-16T17:55:29.593Z,92698.19
2022-08-16T17:57:56.785Z,92694.00
2022-08-16T18:00:24.824Z,92687.41
2022-08-16T18:02:53.350Z,92697.00
2022-08-16T18:05:20.329Z,92687.00
2022-08-16T18:07:47.571Z,92694.66
2022-08-16T18:10:23.732Z,92693.88
2022-08-16T18:13:01.490Z,92686.53
2022-08-16T18:15:28.800Z,92706.25
2022-08-16T18:17:55.468Z,92695.41
2022-08-16T18:20:42.349Z,92702.63
2022-08-16T18:23:16.080Z,92707.50
2022-08-16T18:25:48.848Z,92708.84
2022-08-16T18:28:16.600Z,92713.69
2022-08-16T18:30:46.803Z,92714.78
2022-08-16T18:33:19.792Z,92721.59
2022-08-16T18:35:46.888Z,92720.78
2022-08-16T18:38:13.531Z,92711.59
2022-08-16T18:40:40.485Z,92718.53
2022-08-16T18:43:14.612Z,92716.75
2022-08-16T18:45:42.763Z,92718.13
2022-08-16T18:48:10.883Z,92721.06
2022-08-16T18:50:59.471Z,92721.41
2022-08-16T18:53:27.727Z,92733.56
2022-08-16T18:55:57.995Z,92730.13
2022-08-16T18:58:25.644Z,92715.38
2022-08-16T19:00:56.453Z,92725.91
2022-08-16T19:03:32.304Z,92732.22
2022-08-16T19:06:05.831Z,92722.78
2022-08-16T19:08:35.706Z,92733.88
2022-08-16T19:11:03.911Z,92733.88
2022-08-16T19:13:32.045Z,92737.69
2022-08-16T19:16:00.087Z,92742.81
2022-08-16T19:18:28.108Z,92744.75
2022-08-16T19:21:03.304Z,92742.34
2022-08-16T19:23:35.692Z,92745.03
2022-08-16T19:26:06.776Z,92741.75
2022-08-16T19:28:51.182Z,92728.63
2022-08-16T19:31:29.736Z,92744.75
2022-08-16T19:33:56.884Z,92746.63
2022-08-16T19:36:35.755Z,92751.47
2022-08-16T19:39:10.228Z,92751.72
2022-08-16T19:41:40.471Z,92742.59
2022-08-16T19:44:08.244Z,92739.38
2022-08-16T19:46:35.683Z,92751.47
2022-08-16T19:49:02.858Z,92756.34
2022-08-16T19:51:29.690Z,92764.94
2022-08-16T19:53:56.402Z,92763.84
2022-08-16T19:56:25.501Z,92746.66
2022-08-16T19:59:17.315Z,92769.75
2022-08-16T20:01:42.275Z,92763.59
2022-08-16T20:04:12.765Z,92770.84
2022-08-16T20:06:41.632Z,92766.56
2022-08-16T20:09:10.386Z,92760.88
2022-08-16T20:11:41.163Z,92757.69
2022-08-16T20:14:07.884Z,92767.09
2022-08-16T20:16:34.505Z,92742.91
2022-08-16T20:19:01.284Z,92750.44
2022-08-16T20:21:28.397Z,92739.94
2022-08-16T20:24:09.914Z,92746.66
2022-08-16T20:26:41.909Z,92746.41
2022-08-16T20:29:08.501Z,92732.13
2022-08-16T20:31:35.259Z,92743.16
2022-08-16T20:34:02.085Z,92756.06
2022-08-16T20:36:29.799Z,92756.06
2022-08-16T20:38:59.791Z,92762.25
2022-08-16T20:41:27.337Z,92764.38
2022-08-16T20:43:54.990Z,92764.91
2022-08-16T20:46:22.348Z,92770.25
2022-08-16T20:48:49.565Z,92767.00
2022-08-16T20:51:16.713Z,92770.53
2022-08-16T20:53:44.298Z,92771.28
2022-08-16T20:56:11.563Z,92767.25
2022-08-16T20:58:38.799Z,92773.44
2022-08-16T21:01:06.995Z,92778.22
2022-08-16T21:03:33.763Z,92778.44
2022-08-16T21:06:04.453Z,92777.91
2022-08-16T21:08:52.009Z,92778.72
2022-08-16T21:11:21.468Z,92785.66
2022-08-16T21:13:48.382Z,92789.34
2022-08-16T21:16:16.360Z,92784.53
2022-08-16T21:18:43.016Z,92786.59
2022-08-16T21:21:09.830Z,92794.97
2022-08-16T21:23:36.440Z,92798.97
2022-08-16T21:26:07.343Z,92794.69
2022-08-16T21:28:43.329Z,92802.72
2022-08-16T21:31:11.954Z,92802.09
2022-08-16T21:33:39.220Z,92792.38
2022-08-16T21:36:06.645Z,92775.06
2022-08-16T21:38:33.336Z,92791.66
2022-08-16T21:41:00.447Z,92775.66
2022-08-16T21:43:31.838Z,92740.66
2022-08-16T21:45:59.542Z,92792.31
2022-08-16T21:48:34.724Z,92792.69
2022-08-16T21:51:08.065Z,92790.44
2022-08-16T21:53:35.799Z,92786.78
2022-08-16T21:56:03.637Z,92791.09
2022-08-16T21:58:30.806Z,92765.34
2022-08-16T22:00:57.670Z,92788.31
2022-08-16T22:03:24.616Z,92788.31
2022-08-16T22:06:11.815Z,92785.22
2022-08-16T22:08:50.308Z,92778.91
2022-08-16T22:11:23.141Z,92771.22
2022-08-16T22:13:58.340Z,92789.00
2022-08-16T22:16:31.789Z,92800.81
2022-08-16T22:18:59.184Z,92787.47
2022-08-16T22:21:26.177Z,92780.91
2022-08-16T22:23:56.667Z,92782.75
2022-08-16T22:26:31.670Z,92765.50
2022-08-16T22:29:03.348Z,92764.41
2022-08-16T22:31:29.959Z,92780.75
2022-08-16T22:33:56.872Z,92780.91
2022-08-16T22:36:28.469Z,92786.16
2022-08-16T22:38:58.838Z,92788.03
2022-08-16T22:41:28.528Z,92790.59
2022-08-16T22:43:55.727Z,92787.06
2022-08-16T22:46:22.466Z,92792.88
2022-08-16T22:48:52.193Z,92755.22
2022-08-16T22:51:20.580Z,92803.78
2022-08-16T22:53:48.080Z,92798.63
2022-08-16T22:56:18.336Z,92796.22
2022-08-16T22:58:46.055Z,92802.66
2022-08-16T23:01:15.558Z,92808.66
2022-08-16T23:03:43.126Z,92810.34
2022-08-16T23:06:11.859Z,92818.06
2022-08-16T23:08:41.199Z,92814.13
2022-08-16T23:11:11.328Z,92805.56
2022-08-16T23:13:49.736Z,92797.66
2022-08-16T23:16:25.056Z,92817.34
2022-08-16T23:18:59.993Z,92806.28
2022-08-16T23:21:27.432Z,92806.16
2022-08-16T23:23:54.114Z,92797.91
2022-08-16T23:26:46.134Z,92797.41
2022-08-16T23:29:19.779Z,92787.78
2022-08-16T23:31:56.892Z,92800.09
2022-08-16T23:34:25.077Z,92802.75
2022-08-16T23:36:51.822Z,92824.41
2022-08-16T23:39:18.512Z,92812.09
2022-08-16T23:41:45.272Z,92810.66
2022-08-16T23:44:55.175Z,92818.25
2022-08-16T23:46:58.989Z,92809.94
2022-08-16T23:49:58.240Z,92834.75
2022-08-16T23:52:12.535Z,92837.75
2022-08-16T23:54:39.365Z,92827.97
2022-08-16T23:57:06.053Z,92837.94
2022-08-16T23:59:37.460Z,92839.56
